sensor_id;sensor_type;location;lat;lon;timestamp;pressure;altitude;pressure_sealevel;temperature;humidity
21879;BME280;27908;42.708;23.278;2023-01-27T00:02:13;62675.34;;;0.84;100.00
21879;BME280;27908;42.708;23.278;2023-01-27T00:04:39;62638.63;;;0.78;100.00
21879;BME280;27908;42.708;23.278;2023-01-27T00:07:04;62680.75;;;0.77;100.00
21879;BME280;27908;42.708;23.278;2023-01-27T00:09:29;62645.84;;;0.61;100.00
21879;BME280;27908;42.708;23.278;2023-01-27T00:11:55;62626.13;;;0.49;100.00
21879;BME280;27908;42.708;23.278;2023-01-27T00:14:39;62647.69;;;0.50;100.00
21879;BME280;27908;42.708;23.278;2023-01-27T00:17:04;62607.88;;;0.09;100.00
21879;BME280;27908;42.708;23.278;2023-01-27T00:19:29;62670.69;;;0.48;100.00
21879;BME280;27908;42.708;23.278;2023-01-27T00:21:55;62666.56;;;0.42;100.00
21879;BME280;27908;42.708;23.278;2023-01-27T00:24:39;62632.56;;;0.45;100.00
21879;BME280;27908;42.708;23.278;2023-01-27T00:27:07;62612.78;;;0.31;100.00
21879;BME280;27908;42.708;23.278;2023-01-27T00:29:36;62637.31;;;0.31;100.00
21879;BME280;27908;42.708;23.278;2023-01-27T00:32:02;62638.28;;;0.29;100.00
21879;BME280;27908;42.708;23.278;2023-01-27T00:34:46;62575.25;;;0.34;100.00
21879;BME280;27908;42.708;23.278;2023-01-27T00:37:12;62665.03;;;0.40;100.00
21879;BME280;27908;42.708;23.278;2023-01-27T00:39:37;62615.09;;;0.50;100.00
21879;BME280;27908;42.708;23.278;2023-01-27T00:42:03;62627.09;;;0.47;100.00
21879;BME280;27908;42.708;23.278;2023-01-27T00:44:28;62664.28;;;0.54;100.00
21879;BME280;27908;42.708;23.278;2023-01-27T00:46:55;62621.53;;;0.44;100.00
21879;BME280;27908;42.708;23.278;2023-01-27T00:49:21;62623.69;;;0.54;100.00
21879;BME280;27908;42.708;23.278;2023-01-27T00:51:46;62646.31;;;0.59;100.00
21879;BME280;27908;42.708;23.278;2023-01-27T00:54:11;62653.63;;;0.75;100.00
21879;BME280;27908;42.708;23.278;2023-01-27T00:56:38;62671.25;;;0.80;100.00
21879;BME280;27908;42.708;23.278;2023-01-27T00:59:04;62646.69;;;0.81;100.00
21879;BME280;27908;42.708;23.278;2023-01-27T01:01:29;62654.19;;;0.78;100.00
21879;BME280;27908;42.708;23.278;2023-01-27T01:03:55;62665.13;;;0.74;100.00
21879;BME280;27908;42.708;23.278;2023-01-27T01:06:22;62662.56;;;0.70;100.00
21879;BME280;27908;42.708;23.278;2023-01-27T01:08:47;62699.19;;;0.44;100.00
21879;BME280;27908;42.708;23.278;2023-01-27T01:11:15;62675.81;;;0.53;100.00
21879;BME280;27908;42.708;23.278;2023-01-27T01:13:42;62630.44;;;0.38;100.00
21879;BME280;27908;42.708;23.278;2023-01-27T01:16:15;62617.63;;;0.50;100.00
21879;BME280;27908;42.708;23.278;2023-01-27T01:18:41;62665.31;;;0.55;100.00
21879;BME280;27908;42.708;23.278;2023-01-27T01:21:08;62664.31;;;0.57;100.00
21879;BME280;27908;42.708;23.278;2023-01-27T01:23:37;62667.38;;;0.60;100.00
21879;BME280;27908;42.708;23.278;2023-01-27T01:26:03;62667.81;;;0.55;100.00
21879;BME280;27908;42.708;23.278;2023-01-27T01:28:31;62677.41;;;0.60;100.00
21879;BME280;27908;42.708;23.278;2023-01-27T01:31:13;62742.75;;;0.70;100.00
21879;BME280;27908;42.708;23.278;2023-01-27T01:33:39;62683.28;;;0.80;100.00
21879;BME280;27908;42.708;23.278;2023-01-27T01:36:12;62663.34;;;0.58;100.00
21879;BME280;27908;42.708;23.278;2023-01-27T01:38:37;62589.13;;;0.25;100.00
21879;BME280;27908;42.708;23.278;2023-01-27T01:41:04;62613.47;;;0.41;100.00
21879;BME280;27908;42.708;23.278;2023-01-27T01:43:30;62623.44;;;0.39;100.00
21879;BME280;27908;42.708;23.278;2023-01-27T01:45:57;62617.28;;;0.31;100.00
21879;BME280;27908;42.708;23.278;2023-01-27T01:48:33;62634.75;;;0.28;100.00
21879;BME280;27908;42.708;23.278;2023-01-27T01:51:31;62628.03;;;0.43;100.00
21879;BME280;27908;42.708;23.278;2023-01-27T01:56:34;62639.69;;;0.52;100.00
21879;BME280;27908;42.708;23.278;2023-01-27T01:59:05;62640.03;;;0.72;100.00
21879;BME280;27908;42.708;23.278;2023-01-27T02:01:32;62693.28;;;0.77;100.00
21879;BME280;27908;42.708;23.278;2023-01-27T02:04:00;62674.13;;;0.71;100.00
21879;BME280;27908;42.708;23.278;2023-01-27T02:06:27;62664.56;;;0.69;100.00
21879;BME280;27908;42.708;23.278;2023-01-27T02:08:53;62686.25;;;0.78;100.00
21879;BME280;27908;42.708;23.278;2023-01-27T02:11:19;62641.59;;;0.76;100.00
21879;BME280;27908;42.708;23.278;2023-01-27T02:13:45;62687.22;;;0.76;100.00
21879;BME280;27908;42.708;23.278;2023-01-27T02:16:11;62654.28;;;0.83;100.00
21879;BME280;27908;42.708;23.278;2023-01-27T02:18:38;62664.75;;;0.81;100.00
21879;BME280;27908;42.708;23.278;2023-01-27T02:21:04;62691.75;;;0.76;100.00
21879;BME280;27908;42.708;23.278;2023-01-27T02:26:03;62657.34;;;0.57;100.00
21879;BME280;27908;42.708;23.278;2023-01-27T02:28:30;62644.28;;;0.57;100.00
21879;BME280;27908;42.708;23.278;2023-01-27T02:30:56;62672.41;;;0.60;100.00
21879;BME280;27908;42.708;23.278;2023-01-27T02:33:22;62714.34;;;0.78;100.00
21879;BME280;27908;42.708;23.278;2023-01-27T02:35:58;62683.31;;;0.82;100.00
21879;BME280;27908;42.708;23.278;2023-01-27T02:38:29;62681.47;;;0.90;100.00
21879;BME280;27908;42.708;23.278;2023-01-27T02:40:58;62704.06;;;0.93;100.00
21879;BME280;27908;42.708;23.278;2023-01-27T02:43:25;62660.91;;;0.90;100.00
21879;BME280;27908;42.708;23.278;2023-01-27T02:45:51;62687.41;;;0.86;100.00
21879;BME280;27908;42.708;23.278;2023-01-27T02:48:16;62672.53;;;0.96;100.00
21879;BME280;27908;42.708;23.278;2023-01-27T02:50:41;62669.34;;;0.86;100.00
21879;BME280;27908;42.708;23.278;2023-01-27T02:53:07;62676.41;;;0.88;100.00
21879;BME280;27908;42.708;23.278;2023-01-27T02:55:33;62702.41;;;0.84;100.00
21879;BME280;27908;42.708;23.278;2023-01-27T02:57:58;62700.41;;;0.84;100.00
21879;BME280;27908;42.708;23.278;2023-01-27T03:00:24;62649.38;;;0.91;100.00
21879;BME280;27908;42.708;23.278;2023-01-27T03:02:49;62696.19;;;1.02;100.00
21879;BME280;27908;42.708;23.278;2023-01-27T03:05:14;62692.16;;;1.01;100.00
21879;BME280;27908;42.708;23.278;2023-01-27T03:07:40;62749.81;;;1.01;100.00
21879;BME280;27908;42.708;23.278;2023-01-27T03:10:07;62692.25;;;1.06;100.00
21879;BME280;27908;42.708;23.278;2023-01-27T03:12:33;62666.50;;;0.95;100.00
21879;BME280;27908;42.708;23.278;2023-01-27T03:14:58;62733.38;;;1.06;100.00
21879;BME280;27908;42.708;23.278;2023-01-27T03:17:42;62646.00;;;0.68;100.00
21879;BME280;27908;42.708;23.278;2023-01-27T03:20:26;62680.28;;;0.79;100.00
21879;BME280;27908;42.708;23.278;2023-01-27T03:22:52;62663.06;;;0.70;100.00
21879;BME280;27908;42.708;23.278;2023-01-27T03:25:17;62653.03;;;0.70;100.00
21879;BME280;27908;42.708;23.278;2023-01-27T03:27:43;62654.94;;;0.65;100.00
21879;BME280;27908;42.708;23.278;2023-01-27T03:30:09;62643.22;;;0.82;100.00
21879;BME280;27908;42.708;23.278;2023-01-27T03:32:35;62640.03;;;0.72;100.00
21879;BME280;27908;42.708;23.278;2023-01-27T03:35:01;62674.19;;;0.76;100.00
21879;BME280;27908;42.708;23.278;2023-01-27T03:37:29;62633.53;;;0.73;100.00
21879;BME280;27908;42.708;23.278;2023-01-27T03:40:14;62675.28;;;0.53;100.00
21879;BME280;27908;42.708;23.278;2023-01-27T03:42:58;62638.03;;;0.43;100.00
21879;BME280;27908;42.708;23.278;2023-01-27T03:45:49;62648.41;;;0.63;100.00
21879;BME280;27908;42.708;23.278;2023-01-27T03:48:34;62684.47;;;0.62;100.00
21879;BME280;27908;42.708;23.278;2023-01-27T03:51:01;62715.25;;;0.74;100.00
21879;BME280;27908;42.708;23.278;2023-01-27T03:53:26;62669.94;;;0.62;100.00
21879;BME280;27908;42.708;23.278;2023-01-27T03:55:52;62652.03;;;0.69;100.00
21879;BME280;27908;42.708;23.278;2023-01-27T03:58:36;62660.63;;;0.75;100.00
21879;BME280;27908;42.708;23.278;2023-01-27T04:01:11;62679.81;;;0.81;100.00
21879;BME280;27908;42.708;23.278;2023-01-27T04:03:37;62665.69;;;0.77;100.00
21879;BME280;27908;42.708;23.278;2023-01-27T04:06:28;62717.03;;;0.88;100.00
21879;BME280;27908;42.708;23.278;2023-01-27T04:09:16;62704.09;;;0.95;100.00
21879;BME280;27908;42.708;23.278;2023-01-27T04:11:42;62707.19;;;1.01;100.00
21879;BME280;27908;42.708;23.278;2023-01-27T04:14:39;62702.88;;;1.11;100.00
21879;BME280;27908;42.708;23.278;2023-01-27T04:17:12;62719.03;;;1.17;100.00
21879;BME280;27908;42.708;23.278;2023-01-27T04:19:38;62735.09;;;1.18;100.00
21879;BME280;27908;42.708;23.278;2023-01-27T04:22:05;62717.13;;;1.22;100.00
21879;BME280;27908;42.708;23.278;2023-01-27T04:24:31;62721.75;;;1.29;100.00
21879;BME280;27908;42.708;23.278;2023-01-27T04:26:58;62740.41;;;1.35;100.00
21879;BME280;27908;42.708;23.278;2023-01-27T04:29:28;62685.19;;;1.33;100.00
21879;BME280;27908;42.708;23.278;2023-01-27T04:31:54;62745.81;;;1.28;100.00
21879;BME280;27908;42.708;23.278;2023-01-27T04:34:20;62725.38;;;1.38;100.00
21879;BME280;27908;42.708;23.278;2023-01-27T04:36:46;62716.44;;;1.43;100.00
21879;BME280;27908;42.708;23.278;2023-01-27T04:39:12;62771.78;;;1.51;100.00
21879;BME280;27908;42.708;23.278;2023-01-27T04:41:38;62694.75;;;1.35;100.00
21879;BME280;27908;42.708;23.278;2023-01-27T04:44:04;62737.56;;;1.44;100.00
21879;BME280;27908;42.708;23.278;2023-01-27T04:46:30;62746.13;;;1.48;100.00
21879;BME280;27908;42.708;23.278;2023-01-27T04:48:56;62741.22;;;1.53;100.00
21879;BME280;27908;42.708;23.278;2023-01-27T04:51:22;62676.84;;;1.15;100.00
21879;BME280;27908;42.708;23.278;2023-01-27T04:53:47;62731.00;;;1.43;100.00
21879;BME280;27908;42.708;23.278;2023-01-27T04:59:09;62742.28;;;1.27;100.00
21879;BME280;27908;42.708;23.278;2023-01-27T05:01:35;62744.13;;;1.19;100.00
21879;BME280;27908;42.708;23.278;2023-01-27T05:04:01;62743.22;;;1.23;100.00
21879;BME280;27908;42.708;23.278;2023-01-27T05:06:27;62675.28;;;1.11;100.00
21879;BME280;27908;42.708;23.278;2023-01-27T05:08:52;62716.56;;;1.19;100.00
21879;BME280;27908;42.708;23.278;2023-01-27T05:11:18;62716.97;;;1.15;100.00
21879;BME280;27908;42.708;23.278;2023-01-27T05:13:44;62760.47;;;1.35;100.00
21879;BME280;27908;42.708;23.278;2023-01-27T05:18:45;62737.34;;;1.32;100.00
21879;BME280;27908;42.708;23.278;2023-01-27T05:21:12;62735.94;;;1.38;100.00
21879;BME280;27908;42.708;23.278;2023-01-27T05:23:38;62739.00;;;1.41;100.00
21879;BME280;27908;42.708;23.278;2023-01-27T05:26:17;62711.84;;;1.37;100.00
21879;BME280;27908;42.708;23.278;2023-01-27T05:28:45;62731.81;;;1.32;100.00
21879;BME280;27908;42.708;23.278;2023-01-27T05:31:14;62737.53;;;1.42;100.00
21879;BME280;27908;42.708;23.278;2023-01-27T05:33:41;62711.97;;;1.15;100.00
21879;BME280;27908;42.708;23.278;2023-01-27T05:36:08;62739.75;;;1.27;100.00
21879;BME280;27908;42.708;23.278;2023-01-27T05:38:34;62720.97;;;1.14;100.00
21879;BME280;27908;42.708;23.278;2023-01-27T05:41:02;62654.59;;;1.03;100.00
21879;BME280;27908;42.708;23.278;2023-01-27T05:43:30;62712.84;;;0.79;100.00
21879;BME280;27908;42.708;23.278;2023-01-27T05:46:12;62686.88;;;0.57;100.00
21879;BME280;27908;42.708;23.278;2023-01-27T05:48:43;62637.50;;;0.70;100.00
21879;BME280;27908;42.708;23.278;2023-01-27T05:51:09;62653.91;;;0.61;100.00
21879;BME280;27908;42.708;23.278;2023-01-27T05:53:35;62682.19;;;0.74;100.00
21879;BME280;27908;42.708;23.278;2023-01-27T05:56:01;62587.31;;;0.35;100.00
21879;BME280;27908;42.708;23.278;2023-01-27T05:58:26;62640.84;;;0.32;100.00
21879;BME280;27908;42.708;23.278;2023-01-27T06:00:52;62627.47;;;0.40;100.00
21879;BME280;27908;42.708;23.278;2023-01-27T06:03:18;62661.50;;;0.66;100.00
21879;BME280;27908;42.708;23.278;2023-01-27T06:05:54;62671.25;;;0.51;100.00
21879;BME280;27908;42.708;23.278;2023-01-27T06:08:24;62628.56;;;0.46;100.00
21879;BME280;27908;42.708;23.278;2023-01-27T06:10:51;62619.38;;;0.35;100.00
21879;BME280;27908;42.708;23.278;2023-01-27T06:13:17;62633.22;;;0.53;100.00
21879;BME280;27908;42.708;23.278;2023-01-27T06:15:44;62676.25;;;0.51;100.00
21879;BME280;27908;42.708;23.278;2023-01-27T06:18:11;62638.19;;;0.51;100.00
21879;BME280;27908;42.708;23.278;2023-01-27T06:20:37;62659.44;;;0.64;100.00
21879;BME280;27908;42.708;23.278;2023-01-27T06:23:03;62661.91;;;0.62;100.00
21879;BME280;27908;42.708;23.278;2023-01-27T06:25:29;62740.31;;;0.74;100.00
21879;BME280;27908;42.708;23.278;2023-01-27T06:27:55;62699.19;;;0.71;100.00
21879;BME280;27908;42.708;23.278;2023-01-27T06:30:21;62617.75;;;0.58;100.00
21879;BME280;27908;42.708;23.278;2023-01-27T06:32:46;62647.25;;;0.55;100.00
21879;BME280;27908;42.708;23.278;2023-01-27T06:35:12;62681.44;;;0.61;100.00
21879;BME280;27908;42.708;23.278;2023-01-27T06:37:37;62611.88;;;0.37;100.00
21879;BME280;27908;42.708;23.278;2023-01-27T06:40:04;62622.50;;;0.43;100.00
21879;BME280;27908;42.708;23.278;2023-01-27T06:42:29;62647.78;;;0.55;100.00
21879;BME280;27908;42.708;23.278;2023-01-27T06:44:55;62676.47;;;0.64;100.00
21879;BME280;27908;42.708;23.278;2023-01-27T06:47:20;62624.88;;;0.65;100.00
21879;BME280;27908;42.708;23.278;2023-01-27T06:49:46;62672.13;;;0.71;100.00
21879;BME280;27908;42.708;23.278;2023-01-27T06:52:11;62710.44;;;0.84;100.00
21879;BME280;27908;42.708;23.278;2023-01-27T06:54:37;62719.56;;;0.91;100.00
21879;BME280;27908;42.708;23.278;2023-01-27T06:57:02;62689.16;;;1.00;100.00
21879;BME280;27908;42.708;23.278;2023-01-27T06:59:27;62741.38;;;1.05;100.00
21879;BME280;27908;42.708;23.278;2023-01-27T07:01:53;62709.88;;;1.10;100.00
21879;BME280;27908;42.708;23.278;2023-01-27T07:04:18;62703.91;;;1.12;100.00
21879;BME280;27908;42.708;23.278;2023-01-27T07:06:44;62692.06;;;1.25;100.00
21879;BME280;27908;42.708;23.278;2023-01-27T07:09:09;62711.88;;;1.39;100.00
21879;BME280;27908;42.708;23.278;2023-01-27T07:11:35;62756.91;;;1.32;100.00
21879;BME280;27908;42.708;23.278;2023-01-27T07:14:01;62750.91;;;1.33;100.00
21879;BME280;27908;42.708;23.278;2023-01-27T07:16:27;62728.38;;;1.36;100.00
21879;BME280;27908;42.708;23.278;2023-01-27T07:18:52;62773.28;;;1.50;100.00
21879;BME280;27908;42.708;23.278;2023-01-27T07:21:18;62829.78;;;1.66;100.00
21879;BME280;27908;42.708;23.278;2023-01-27T07:23:43;62744.53;;;1.41;100.00
21879;BME280;27908;42.708;23.278;2023-01-27T07:26:09;62750.22;;;1.52;100.00
21879;BME280;27908;42.708;23.278;2023-01-27T07:28:34;62762.75;;;1.52;100.00
21879;BME280;27908;42.708;23.278;2023-01-27T07:31:01;62741.44;;;1.68;100.00
21879;BME280;27908;42.708;23.278;2023-01-27T07:33:27;62748.34;;;1.60;100.00
21879;BME280;27908;42.708;23.278;2023-01-27T07:35:52;62752.34;;;1.59;100.00
21879;BME280;27908;42.708;23.278;2023-01-27T07:38:19;62761.50;;;1.65;100.00
21879;BME280;27908;42.708;23.278;2023-01-27T07:40:44;62772.63;;;1.71;100.00
21879;BME280;27908;42.708;23.278;2023-01-27T07:43:10;62781.97;;;1.58;100.00
21879;BME280;27908;42.708;23.278;2023-01-27T07:45:36;62808.00;;;1.54;100.00
21879;BME280;27908;42.708;23.278;2023-01-27T07:48:10;62690.81;;;1.41;100.00
21879;BME280;27908;42.708;23.278;2023-01-27T07:50:38;62802.53;;;1.88;100.00
21879;BME280;27908;42.708;23.278;2023-01-27T07:53:04;62783.56;;;1.94;100.00
21879;BME280;27908;42.708;23.278;2023-01-27T07:55:31;62823.50;;;2.11;100.00
21879;BME280;27908;42.708;23.278;2023-01-27T07:57:57;62818.16;;;2.20;100.00
21879;BME280;27908;42.708;23.278;2023-01-27T08:00:22;62830.97;;;2.06;100.00
21879;BME280;27908;42.708;23.278;2023-01-27T08:02:52;62846.59;;;2.09;100.00
21879;BME280;27908;42.708;23.278;2023-01-27T08:05:18;62822.97;;;2.08;100.00
21879;BME280;27908;42.708;23.278;2023-01-27T08:07:44;62820.78;;;2.27;100.00
21879;BME280;27908;42.708;23.278;2023-01-27T08:10:10;62789.56;;;2.24;100.00
21879;BME280;27908;42.708;23.278;2023-01-27T08:12:35;62823.16;;;2.20;100.00
21879;BME280;27908;42.708;23.278;2023-01-27T08:15:01;62818.03;;;2.12;100.00
21879;BME280;27908;42.708;23.278;2023-01-27T08:17:26;62780.41;;;1.86;100.00
21879;BME280;27908;42.708;23.278;2023-01-27T08:19:51;62828.72;;;1.91;100.00
21879;BME280;27908;42.708;23.278;2023-01-27T08:22:17;62823.72;;;2.23;100.00
21879;BME280;27908;42.708;23.278;2023-01-27T08:24:49;62773.50;;;1.94;100.00
21879;BME280;27908;42.708;23.278;2023-01-27T08:27:15;62746.31;;;1.58;100.00
21879;BME280;27908;42.708;23.278;2023-01-27T08:29:40;62762.34;;;1.27;100.00
21879;BME280;27908;42.708;23.278;2023-01-27T08:32:06;62692.78;;;1.08;100.00
21879;BME280;27908;42.708;23.278;2023-01-27T08:34:32;62700.72;;;1.02;100.00
21879;BME280;27908;42.708;23.278;2023-01-27T08:36:57;62677.22;;;1.06;100.00
21879;BME280;27908;42.708;23.278;2023-01-27T08:39:23;62693.72;;;1.05;100.00
21879;BME280;27908;42.708;23.278;2023-01-27T08:41:48;62706.22;;;1.02;100.00
21879;BME280;27908;42.708;23.278;2023-01-27T08:44:14;62723.59;;;1.21;100.00
21879;BME280;27908;42.708;23.278;2023-01-27T08:46:39;62708.38;;;1.11;100.00
21879;BME280;27908;42.708;23.278;2023-01-27T08:49:04;62701.91;;;1.12;100.00
21879;BME280;27908;42.708;23.278;2023-01-27T08:51:30;62731.69;;;1.24;100.00
21879;BME280;27908;42.708;23.278;2023-01-27T08:53:55;62743.31;;;1.28;100.00
21879;BME280;27908;42.708;23.278;2023-01-27T08:56:21;62695.50;;;1.21;100.00
21879;BME280;27908;42.708;23.278;2023-01-27T08:58:47;62672.56;;;0.99;100.00
21879;BME280;27908;42.708;23.278;2023-01-27T09:01:13;62727.97;;;1.13;100.00
21879;BME280;27908;42.708;23.278;2023-01-27T09:03:39;62724.13;;;1.22;100.00
21879;BME280;27908;42.708;23.278;2023-01-27T09:06:07;62693.88;;;1.12;100.00
21879;BME280;27908;42.708;23.278;2023-01-27T09:08:33;62720.25;;;1.30;100.00
21879;BME280;27908;42.708;23.278;2023-01-27T09:10:58;62735.44;;;1.38;100.00
21879;BME280;27908;42.708;23.278;2023-01-27T09:13:24;62700.50;;;1.50;100.00
21879;BME280;27908;42.708;23.278;2023-01-27T09:15:51;62753.97;;;1.65;100.00
21879;BME280;27908;42.708;23.278;2023-01-27T09:18:16;62717.00;;;1.46;100.00
21879;BME280;27908;42.708;23.278;2023-01-27T09:20:42;62723.81;;;1.63;100.00
21879;BME280;27908;42.708;23.278;2023-01-27T09:23:07;62778.13;;;1.69;100.00
21879;BME280;27908;42.708;23.278;2023-01-27T09:25:32;62740.19;;;1.52;100.00
21879;BME280;27908;42.708;23.278;2023-01-27T09:27:59;62767.19;;;1.76;100.00
21879;BME280;27908;42.708;23.278;2023-01-27T09:30:26;62728.66;;;1.53;100.00
21879;BME280;27908;42.708;23.278;2023-01-27T09:32:52;62762.56;;;1.69;100.00
21879;BME280;27908;42.708;23.278;2023-01-27T09:35:18;62735.69;;;1.52;100.00
21879;BME280;27908;42.708;23.278;2023-01-27T09:37:45;62723.00;;;1.45;100.00
21879;BME280;27908;42.708;23.278;2023-01-27T09:45:58;62731.53;;;1.14;100.00
21879;BME280;27908;42.708;23.278;2023-01-27T10:04:41;62725.09;;;1.20;100.00
21879;BME280;27908;42.708;23.278;2023-01-27T10:07:27;62725.06;;;1.18;100.00
21879;BME280;27908;42.708;23.278;2023-01-27T10:15:58;62697.84;;;1.11;100.00
21879;BME280;27908;42.708;23.278;2023-01-27T10:19:09;62746.06;;;1.14;100.00
21879;BME280;27908;42.708;23.278;2023-01-27T10:26:55;62717.22;;;1.30;100.00
21879;BME280;27908;42.708;23.278;2023-01-27T10:32:18;62754.91;;;1.32;100.00
21879;BME280;27908;42.708;23.278;2023-01-27T10:45:47;62724.47;;;1.12;100.00
21879;BME280;27908;42.708;23.278;2023-01-27T10:48:28;62728.91;;;1.09;100.00
21879;BME280;27908;42.708;23.278;2023-01-27T10:53:32;62749.25;;;1.24;100.00
21879;BME280;27908;42.708;23.278;2023-01-27T11:01:11;62701.31;;;1.39;100.00
21879;BME280;27908;42.708;23.278;2023-01-27T11:04:13;62695.13;;;0.99;100.00
21879;BME280;27908;42.708;23.278;2023-01-27T11:06:40;62725.44;;;0.82;100.00
21879;BME280;27908;42.708;23.278;2023-01-27T11:09:33;62680.47;;;0.92;100.00
21879;BME280;27908;42.708;23.278;2023-01-27T11:12:03;62708.59;;;0.95;100.00
21879;BME280;27908;42.708;23.278;2023-01-27T11:14:48;62693.19;;;1.02;100.00
21879;BME280;27908;42.708;23.278;2023-01-27T11:17:37;62713.16;;;0.97;100.00
21879;BME280;27908;42.708;23.278;2023-01-27T11:20:42;62625.91;;;0.66;100.00
21879;BME280;27908;42.708;23.278;2023-01-27T11:23:23;62716.78;;;1.03;100.00
21879;BME280;27908;42.708;23.278;2023-01-27T11:28:42;62692.78;;;1.08;100.00
21879;BME280;27908;42.708;23.278;2023-01-27T11:33:59;62686.53;;;0.95;100.00
21879;BME280;27908;42.708;23.278;2023-01-27T11:36:28;62693.06;;;0.94;100.00
21879;BME280;27908;42.708;23.278;2023-01-27T11:38:55;62677.84;;;0.84;100.00
21879;BME280;27908;42.708;23.278;2023-01-27T11:41:23;62703.72;;;1.02;100.00
21879;BME280;27908;42.708;23.278;2023-01-27T11:43:49;62693.88;;;1.12;100.00
21879;BME280;27908;42.708;23.278;2023-01-27T11:46:21;62669.56;;;0.98;100.00
21879;BME280;27908;42.708;23.278;2023-01-27T11:48:54;62721.31;;;1.05;100.00
21879;BME280;27908;42.708;23.278;2023-01-27T11:51:24;62779.25;;;1.19;100.00
21879;BME280;27908;42.708;23.278;2023-01-27T11:56:26;62718.94;;;1.12;100.00
21879;BME280;27908;42.708;23.278;2023-01-27T11:58:59;62700.97;;;1.16;100.00
21879;BME280;27908;42.708;23.278;2023-01-27T12:04:23;62673.13;;;1.02;100.00
21879;BME280;27908;42.708;23.278;2023-01-27T12:06:58;62687.16;;;1.01;100.00
21879;BME280;27908;42.708;23.278;2023-01-27T12:09:33;62685.63;;;0.99;100.00
21879;BME280;27908;42.708;23.278;2023-01-27T12:14:51;62746.56;;;1.14;100.00
21879;BME280;27908;42.708;23.278;2023-01-27T12:17:27;62714.56;;;0.91;100.00
21879;BME280;27908;42.708;23.278;2023-01-27T12:19:57;62683.31;;;0.82;100.00
21879;BME280;27908;42.708;23.278;2023-01-27T12:22:26;62658.28;;;0.85;100.00
21879;BME280;27908;42.708;23.278;2023-01-27T12:24:56;62659.31;;;0.86;100.00
21879;BME280;27908;42.708;23.278;2023-01-27T12:27:25;62696.63;;;0.98;100.00
21879;BME280;27908;42.708;23.278;2023-01-27T12:29:54;62707.19;;;1.01;100.00
21879;BME280;27908;42.708;23.278;2023-01-27T12:32:23;62692.13;;;0.98;100.00
21879;BME280;27908;42.708;23.278;2023-01-27T12:34:55;62729.53;;;1.15;100.00
21879;BME280;27908;42.708;23.278;2023-01-27T12:37:33;62710.25;;;1.33;100.00
21879;BME280;27908;42.708;23.278;2023-01-27T12:40:02;62715.88;;;1.09;100.00
21879;BME280;27908;42.708;23.278;2023-01-27T12:42:39;62680.97;;;1.21;100.00
21879;BME280;27908;42.708;23.278;2023-01-27T12:45:31;62719.41;;;1.10;100.00
21879;BME280;27908;42.708;23.278;2023-01-27T12:50:39;62733.34;;;1.33;100.00
21879;BME280;27908;42.708;23.278;2023-01-27T12:53:12;62735.25;;;1.28;100.00
21879;BME280;27908;42.708;23.278;2023-01-27T12:56:21;62729.66;;;1.54;100.00
21879;BME280;27908;42.708;23.278;2023-01-27T13:03:47;62757.03;;;1.39;100.00
21879;BME280;27908;42.708;23.278;2023-01-27T13:06:19;62720.19;;;1.28;100.00
21879;BME280;27908;42.708;23.278;2023-01-27T13:08:48;62708.53;;;1.19;100.00
21879;BME280;27908;42.708;23.278;2023-01-27T13:11:18;62732.19;;;0.96;100.00
21879;BME280;27908;42.708;23.278;2023-01-27T13:13:56;62683.53;;;0.95;100.00
21879;BME280;27908;42.708;23.278;2023-01-27T13:16:26;62659.19;;;1.07;100.00
21879;BME280;27908;42.708;23.278;2023-01-27T13:18:54;62718.47;;;1.14;100.00
21879;BME280;27908;42.708;23.278;2023-01-27T13:21:23;62720.94;;;1.41;100.00
21879;BME280;27908;42.708;23.278;2023-01-27T13:23:52;62778.94;;;1.58;100.00
21879;BME280;27908;42.708;23.278;2023-01-27T13:26:23;62774.38;;;1.56;100.00
21879;BME280;27908;42.708;23.278;2023-01-27T13:42:22;62735.84;;;1.33;100.00
21879;BME280;27908;42.708;23.278;2023-01-27T13:44:57;62751.19;;;1.21;100.00
21879;BME280;27908;42.708;23.278;2023-01-27T13:47:35;62727.69;;;1.25;100.00
21879;BME280;27908;42.708;23.278;2023-01-27T13:52:50;62709.75;;;1.32;100.00
21879;BME280;27908;42.708;23.278;2023-01-27T13:55:25;62745.22;;;1.23;100.00
21879;BME280;27908;42.708;23.278;2023-01-27T14:00:24;62728.09;;;1.18;100.00
21879;BME280;27908;42.708;23.278;2023-01-27T14:03:25;62716.03;;;1.19;100.00
21879;BME280;27908;42.708;23.278;2023-01-27T14:06:23;62739.28;;;1.29;100.00
21879;BME280;27908;42.708;23.278;2023-01-27T14:17:10;62769.63;;;1.41;100.00
21879;BME280;27908;42.708;23.278;2023-01-27T14:27:39;62730.84;;;1.33;100.00
21879;BME280;27908;42.708;23.278;2023-01-27T14:33:10;62738.72;;;1.24;100.00
21879;BME280;27908;42.708;23.278;2023-01-27T14:41:54;62742.09;;;1.17;100.00
21879;BME280;27908;42.708;23.278;2023-01-27T14:47:25;62711.38;;;1.09;100.00
21879;BME280;27908;42.708;23.278;2023-01-27T14:50:05;62733.56;;;1.16;100.00
21879;BME280;27908;42.708;23.278;2023-01-27T14:52:41;62724.94;;;1.10;100.00
21879;BME280;27908;42.708;23.278;2023-01-27T14:55:31;62703.34;;;1.09;100.00
21879;BME280;27908;42.708;23.278;2023-01-27T14:58:20;62700.31;;;1.08;100.00
21879;BME280;27908;42.708;23.278;2023-01-27T15:01:02;62694.28;;;1.07;100.00
21879;BME280;27908;42.708;23.278;2023-01-27T15:03:50;62717.66;;;0.96;100.00
21879;BME280;27908;42.708;23.278;2023-01-27T15:06:32;62728.22;;;0.99;100.00
21879;BME280;27908;42.708;23.278;2023-01-27T15:09:09;62727.91;;;1.08;100.00
21879;BME280;27908;42.708;23.278;2023-01-27T15:23:02;62674.91;;;0.89;100.00
21879;BME280;27908;42.708;23.278;2023-01-27T15:25:35;62711.56;;;0.93;100.00
21879;BME280;27908;42.708;23.278;2023-01-27T15:28:03;62661.16;;;0.75;100.00
21879;BME280;27908;42.708;23.278;2023-01-27T15:30:31;62640.84;;;0.61;100.00